Time;durP1;ratioP1;P1;durP2;ratioP2;P2;SDS_P1;SDS_P2;PMS_P1;PMS_P2;Temp;Humidity;BMP_temperature;BMP_pressure;BME280_temperature;BME280_humidity;BME280_pressure;Samples;Min_cycle;Max_cycle;Signal;HPM_P1;HPM_P2
2020/12/28 00:01:00;;;;;;;4.53;2.20;;;;;;;0.39;71.96;95246.33;3660983;79;44074;-17
2020/12/28 00:06:06;;;;;;;4.13;2.30;;;;;;;0.36;72.93;95240.56;3659152;79;43312;-17
2020/12/28 00:11:12;;;;;;;5.10;2.80;;;;;;;0.35;73.62;95238.44;3700509;78;44498;-18
2020/12/28 00:16:19;;;;;;;3.30;2.13;;;;;;;0.40;74.12;95227.31;3698451;80;44026;-18
2020/12/28 00:21:25;;;;;;;4.53;2.53;;;;;;;0.39;75.60;95216.39;3654664;80;44632;-18
2020/12/28 00:26:36;;;;;;;3.17;2.17;;;;;;;0.35;76.32;95210.63;3655072;79;44870;-17
2020/12/28 00:31:43;;;;;;;5.10;2.50;;;;;;;0.31;77.10;95202.70;3674353;78;43728;-18
2020/12/28 00:36:48;;;;;;;3.60;2.47;;;;;;;0.32;78.57;95188.95;3660685;80;44769;-17
2020/12/28 00:41:54;;;;;;;3.90;2.37;;;;;;;0.29;78.90;95191.47;3670348;79;44086;-17
2020/12/28 00:47:01;;;;;;;3.70;2.43;;;;;;;0.28;80.20;95189.82;3663865;79;43983;-17
2020/12/28 00:52:06;;;;;;;5.67;2.67;;;;;;;0.24;81.00;95175.28;3690857;79;44049;-17
2020/12/28 00:57:12;;;;;;;6.03;2.90;;;;;;;0.26;82.03;95175.45;3683286;79;43381;-17
2020/12/28 01:02:18;;;;;;;5.83;2.97;;;;;;;0.20;81.78;95172.16;3666774;79;43654;-18
2020/12/28 01:07:26;;;;;;;3.70;2.50;;;;;;;0.22;82.83;95171.50;3697430;79;26782;-17
2020/12/28 01:12:35;;;;;;;5.63;3.00;;;;;;;0.15;82.50;95163.95;3713763;78;26422;-17
2020/12/28 01:17:43;;;;;;;4.63;2.60;;;;;;;0.19;83.89;95173.16;3678358;79;43780;-18
2020/12/28 01:22:51;;;;;;;4.63;3.00;;;;;;;0.21;83.42;95166.39;3659645;79;26362;-18
2020/12/28 01:27:57;;;;;;;4.73;2.70;;;;;;;0.27;84.42;95170.96;3717214;78;43697;-18
2020/12/28 01:33:04;;;;;;;4.60;2.87;;;;;;;0.27;84.25;95159.05;3731617;78;27413;-18
2020/12/28 01:38:12;;;;;;;5.37;2.97;;;;;;;0.32;85.12;95153.22;3555501;81;26485;-18
2020/12/28 01:43:20;;;;;;;5.57;3.03;;;;;;;0.30;84.97;95142.81;3743453;79;43959;-18
2020/12/28 01:48:26;;;;;;;5.53;3.23;;;;;;;0.37;85.96;95135.80;3641040;81;43999;-18
2020/12/28 01:53:33;;;;;;;6.47;3.00;;;;;;;0.37;86.40;95148.22;3712710;78;43409;-19
2020/12/28 01:58:40;;;;;;;5.13;3.13;;;;;;;0.38;86.86;95137.44;3629617;81;43448;-18
2020/12/28 02:03:47;;;;;;;6.27;3.60;;;;;;;0.34;87.23;95126.06;3722982;79;43651;-18
2020/12/28 02:09:01;;;;;;;5.70;3.60;;;;;;;0.36;87.20;95109.50;3638209;80;26829;-18
2020/12/28 02:14:08;;;;;;;5.77;3.70;;;;;;;0.41;87.97;95100.54;3691910;78;44118;-19
2020/12/28 02:19:23;;;;;;;5.73;3.27;;;;;;;0.45;87.13;95112.39;3659603;80;26760;-19
2020/12/28 02:24:30;;;;;;;5.43;3.33;;;;;;;0.48;86.94;95096.16;3691908;78;26422;-20
2020/12/28 02:29:37;;;;;;;5.73;3.40;;;;;;;0.51;87.00;95106.39;3668707;80;43398;-19
2020/12/28 02:34:44;;;;;;;6.83;3.60;;;;;;;0.51;87.37;95081.23;3729709;79;43275;-20
2020/12/28 02:39:52;;;;;;;6.67;3.10;;;;;;;0.47;88.52;95082.59;3708025;78;26869;-19
2020/12/28 02:44:58;;;;;;;6.53;3.60;;;;;;;0.52;88.83;95076.27;3667126;79;43951;-19
2020/12/28 02:50:22;;;;;;;6.60;3.67;;;;;;;0.51;89.35;95075.94;3684963;79;26497;-19
2020/12/28 02:55:46;;;;;;;4.27;3.17;;;;;;;0.49;89.47;95051.45;3672124;80;26384;-19
2020/12/28 03:01:11;;;;;;;5.97;3.37;;;;;;;0.51;90.99;95051.27;3675531;79;26432;-19
2020/12/28 03:06:35;;;;;;;6.90;4.07;;;;;;;0.47;90.14;95048.16;3654138;79;26766;-19
2020/12/28 03:11:59;;;;;;;5.97;3.63;;;;;;;0.47;89.83;95033.60;3656875;79;26488;-19
2020/12/28 03:17:24;;;;;;;6.53;3.57;;;;;;;0.43;90.19;95044.23;3659068;79;26444;-20
2020/12/28 03:22:47;;;;;;;7.47;3.97;;;;;;;0.48;91.44;95046.33;3645280;80;26309;-18
2020/12/28 03:28:13;;;;;;;6.47;3.70;;;;;;;0.47;90.46;95024.33;3666649;79;26383;-19
2020/12/28 03:33:20;;;;;;;5.67;3.80;;;;;;;0.52;90.77;95018.48;3658374;79;26392;-19
2020/12/28 03:38:34;;;;;;;5.87;3.60;;;;;;;0.48;91.71;95014.06;3646569;78;26565;-19
2020/12/28 03:43:58;;;;;;;5.70;3.67;;;;;;;0.45;91.73;95011.77;3714861;78;26382;-19
2020/12/28 03:49:21;;;;;;;6.20;3.77;;;;;;;0.41;92.15;95005.22;3739695;79;26283;-19
2020/12/28 03:54:47;;;;;;;5.70;3.47;;;;;;;0.43;93.06;95001.86;3602864;81;26983;-19
2020/12/28 04:00:11;;;;;;;5.77;3.50;;;;;;;0.36;93.94;95010.22;3674751;80;26545;-19
2020/12/28 04:05:20;;;;;;;6.37;4.03;;;;;;;0.29;94.38;95006.96;3712472;79;26387;-19
2020/12/28 04:10:36;;;;;;;6.53;3.73;;;;;;;0.32;94.32;95004.96;3664762;78;26441;-19
2020/12/28 04:15:48;;;;;;;6.23;3.83;;;;;;;0.31;94.85;95002.83;3637835;80;26461;-19
2020/12/28 04:20:54;;;;;;;5.90;3.70;;;;;;;0.32;95.27;94998.34;3662498;80;43299;-19
2020/12/28 04:26:00;;;;;;;6.87;3.93;;;;;;;0.27;95.53;94986.49;3713314;79;44066;-19
2020/12/28 04:31:09;;;;;;;8.33;3.80;;;;;;;0.28;97.70;94989.47;3637930;81;43469;-19
2020/12/28 04:36:15;;;;;;;6.37;3.87;;;;;;;0.28;97.25;94988.14;3694730;79;43334;-19
2020/12/28 04:41:21;;;;;;;6.47;4.07;;;;;;;0.26;98.59;94982.20;3719184;78;43491;-19
2020/12/28 04:46:28;;;;;;;8.37;3.97;;;;;;;0.21;98.36;94987.20;3666515;79;43341;-19
2020/12/28 04:51:35;;;;;;;5.47;3.50;;;;;;;0.23;98.96;94987.85;3693050;79;43476;-19
2020/12/28 04:56:42;;;;;;;6.50;3.90;;;;;;;0.19;100.00;94975.16;3662624;79;44031;-19
2020/12/28 05:01:55;;;;;;;6.90;4.00;;;;;;;0.15;100.00;94960.96;3667851;78;43354;-19
2020/12/28 05:07:03;;;;;;;5.70;3.53;;;;;;;0.18;100.00;94961.61;3670158;80;44034;-19
2020/12/28 05:12:09;;;;;;;6.50;3.33;;;;;;;0.18;100.00;94954.47;3664111;80;44107;-19
2020/12/28 05:17:15;;;;;;;6.30;3.70;;;;;;;0.19;100.00;94940.23;3678806;79;44061;-19
2020/12/28 05:22:22;;;;;;;6.63;4.00;;;;;;;0.18;100.00;94921.39;3673355;79;43685;-19
2020/12/28 05:27:27;;;;;;;7.00;3.90;;;;;;;0.17;100.00;94937.47;3678184;79;44754;-19
2020/12/28 05:32:33;;;;;;;4.73;3.10;;;;;;;0.13;100.00;94937.02;3676721;80;43346;-19
2020/12/28 05:37:39;;;;;;;7.37;3.83;;;;;;;0.13;100.00;94925.10;3656141;79;44066;-19
2020/12/28 05:42:51;;;;;;;6.27;3.60;;;;;;;0.12;100.00;94927.43;3689967;79;44095;-19
2020/12/28 05:47:59;;;;;;;6.37;3.40;;;;;;;0.17;100.00;94936.14;3674406;79;43377;-19
2020/12/28 05:53:05;;;;;;;5.73;3.40;;;;;;;0.13;100.00;94929.88;3675258;79;43720;-19
2020/12/28 05:58:11;;;;;;;5.13;3.33;;;;;;;0.17;100.00;94918.94;3662674;79;44455;-19
2020/12/28 06:03:22;;;;;;;5.73;3.17;;;;;;;0.13;100.00;94915.33;3702072;78;43978;-20
2020/12/28 06:08:27;;;;;;;5.90;3.33;;;;;;;0.18;100.00;94928.00;3691372;80;43416;-19
2020/12/28 06:13:33;;;;;;;7.33;3.53;;;;;;;0.18;100.00;94950.50;3709039;80;43994;-19
2020/12/28 06:18:38;;;;;;;6.73;3.50;;;;;;;0.20;100.00;94959.61;3684359;79;44002;-19
2020/12/28 06:23:51;;;;;;;6.43;3.33;;;;;;;0.18;100.00;94965.58;3688177;79;44062;-19
2020/12/28 06:29:06;;;;;;;4.27;2.80;;;;;;;0.19;100.00;94973.33;3681342;79;43677;-20
2020/12/28 06:34:19;;;;;;;5.73;3.20;;;;;;;0.18;100.00;94980.94;3696373;79;43246;-18
2020/12/28 06:39:25;;;;;;;6.53;3.50;;;;;;;0.20;100.00;94983.43;3656208;80;43338;-19
2020/12/28 06:44:33;;;;;;;5.60;3.67;;;;;;;0.19;100.00;94978.62;3698516;79;43515;-18
2020/12/28 06:49:42;;;;;;;4.60;3.27;;;;;;;0.14;100.00;94966.45;3661178;79;43470;-19
2020/12/28 06:54:48;;;;;;;6.17;3.50;;;;;;;0.14;100.00;94957.19;3665295;79;43987;-18
2020/12/28 06:59:55;;;;;;;5.43;3.37;;;;;;;0.08;100.00;94958.73;3661055;79;43325;-19
2020/12/28 07:05:04;;;;;;;5.30;3.30;;;;;;;0.04;100.00;94956.63;3686576;78;44074;-18
2020/12/28 07:10:11;;;;;;;7.20;3.73;;;;;;;0.05;100.00;94963.05;3678892;79;43452;-18
2020/12/28 07:15:18;;;;;;;7.00;3.30;;;;;;;0.11;100.00;94960.19;3696476;79;43712;-18
2020/12/28 07:20:24;;;;;;;5.83;3.70;;;;;;;0.10;100.00;94959.86;3692057;79;44560;-18
2020/12/28 07:25:30;;;;;;;5.90;3.57;;;;;;;0.15;100.00;94957.51;3672379;79;43250;-18
2020/12/28 07:30:35;;;;;;;5.53;3.00;;;;;;;0.21;100.00;94965.22;3672955;79;43754;-19
2020/12/28 07:35:43;;;;;;;6.30;3.50;;;;;;;0.28;100.00;94982.84;3668515;78;43238;-19
2020/12/28 07:40:56;;;;;;;6.80;3.40;;;;;;;0.30;100.00;94976.84;3658907;79;44045;-18
2020/12/28 07:46:09;;;;;;;5.27;3.60;;;;;;;0.36;100.00;94976.61;3663002;79;43978;-18
2020/12/28 07:51:17;;;;;;;7.10;3.90;;;;;;;0.42;100.00;94988.30;3660212;79;43705;-18
2020/12/28 07:56:27;;;;;;;6.33;3.40;;;;;;;0.49;100.00;94995.84;3666778;79;43029;-18
2020/12/28 08:01:37;;;;;;;6.00;3.47;;;;;;;0.51;100.00;95001.79;3682573;79;43395;-18
2020/12/28 08:06:44;;;;;;;8.07;4.03;;;;;;;0.51;100.00;94995.66;3657021;79;43430;-18
2020/12/28 08:11:59;;;;;;;7.93;4.50;;;;;;;0.70;100.00;95003.06;3668395;79;43995;-18
2020/12/28 08:17:12;;;;;;;6.43;3.80;;;;;;;0.79;100.00;95006.41;3658998;79;43710;-19
2020/12/28 08:22:22;;;;;;;7.63;4.20;;;;;;;0.99;100.00;95004.52;3664534;79;43160;-18
2020/12/28 08:27:31;;;;;;;6.33;3.57;;;;;;;1.05;100.00;94987.86;3694066;79;43320;-19
2020/12/28 08:32:38;;;;;;;7.50;4.70;;;;;;;1.12;100.00;94972.84;3658809;79;43401;-19
2020/12/28 08:37:49;;;;;;;7.27;4.33;;;;;;;1.23;100.00;94989.58;3671785;79;44145;-18
2020/12/28 08:42:58;;;;;;;5.97;3.80;;;;;;;1.32;100.00;94992.13;3676209;79;44046;-18
2020/12/28 08:48:04;;;;;;;6.40;3.50;;;;;;;1.38;100.00;94992.69;3655345;79;43991;-18
2020/12/28 08:53:10;;;;;;;5.10;3.50;;;;;;;1.44;100.00;94992.44;3668826;80;43695;-18
2020/12/28 08:58:19;;;;;;;6.17;3.67;;;;;;;1.52;100.00;94996.31;3699575;78;44022;-19
2020/12/28 09:03:24;;;;;;;6.20;3.47;;;;;;;1.63;100.00;94995.80;3663154;79;44059;-19
2020/12/28 09:08:32;;;;;;;6.40;3.50;;;;;;;1.65;100.00;95011.52;3689504;79;43456;-20
2020/12/28 09:13:38;;;;;;;7.23;3.87;;;;;;;1.74;100.00;95013.03;3669468;79;43271;-17
2020/12/28 09:18:45;;;;;;;6.17;3.40;;;;;;;1.82;100.00;95000.14;3664909;79;27604;-18
2020/12/28 09:23:52;;;;;;;6.03;4.00;;;;;;;1.97;100.00;95013.33;3661171;79;44062;-18
2020/12/28 09:28:59;;;;;;;6.73;3.57;;;;;;;2.07;100.00;95016.98;3654756;79;43647;-18
2020/12/28 09:34:05;;;;;;;6.10;3.50;;;;;;;2.18;100.00;95016.45;3683352;80;43374;-18
2020/12/28 09:39:12;;;;;;;4.70;3.10;;;;;;;2.30;100.00;95012.75;3707606;79;44487;-19
2020/12/28 09:44:19;;;;;;;5.73;3.33;;;;;;;2.42;100.00;95002.42;3660728;79;44031;-18
2020/12/28 09:49:26;;;;;;;5.83;3.73;;;;;;;2.55;100.00;95006.98;3702937;78;44103;-19
2020/12/28 09:54:35;;;;;;;4.90;3.33;;;;;;;2.67;100.00;95000.63;3679087;79;44393;-18
2020/12/28 09:59:42;;;;;;;5.37;3.67;;;;;;;2.78;100.00;94999.55;3683396;79;43718;-18
2020/12/28 10:04:48;;;;;;;6.27;3.90;;;;;;;2.89;100.00;95000.00;3649832;79;43178;-19
2020/12/28 10:09:55;;;;;;;6.13;3.73;;;;;;;2.97;100.00;95001.67;3658357;79;43410;-18
2020/12/28 10:15:00;;;;;;;6.50;3.17;;;;;;;3.04;100.00;94995.89;3683802;79;43989;-18
2020/12/28 10:20:06;;;;;;;5.03;3.17;;;;;;;3.05;100.00;94995.67;3687255;78;44020;-18
2020/12/28 10:25:14;;;;;;;5.03;3.53;;;;;;;3.08;100.00;94985.14;3673626;78;43827;-18
2020/12/28 10:30:22;;;;;;;5.43;3.77;;;;;;;3.10;100.00;94980.97;3691879;79;44092;-19
2020/12/28 10:35:28;;;;;;;5.80;4.03;;;;;;;3.12;100.00;94993.05;3657419;79;44023;-18
2020/12/28 10:40:34;;;;;;;7.10;3.87;;;;;;;3.26;100.00;94985.91;3655222;79;43721;-26
2020/12/28 10:45:42;;;;;;;6.20;4.10;;;;;;;3.38;100.00;94989.63;3715351;79;43077;-19
2020/12/28 10:50:48;;;;;;;6.17;3.97;;;;;;;3.41;100.00;94979.09;3690433;78;43302;-19
2020/12/28 10:55:54;;;;;;;9.80;4.73;;;;;;;3.41;99.16;94981.75;3661214;79;44804;-19
2020/12/28 11:01:00;;;;;;;7.93;5.00;;;;;;;3.53;98.95;94968.69;3685924;78;44079;-19
2020/12/28 11:06:06;;;;;;;7.17;4.20;;;;;;;3.64;100.00;94958.77;3697300;80;44330;-19
2020/12/28 11:11:12;;;;;;;5.37;3.70;;;;;;;3.72;98.71;94960.91;3686701;80;42964;-32
2020/12/28 11:16:26;;;;;;;6.40;4.00;;;;;;;3.83;99.10;94945.66;3655284;79;43717;-20
2020/12/28 11:21:33;;;;;;;7.10;4.27;;;;;;;3.94;100.00;94943.71;3662980;80;43386;-19
2020/12/28 11:26:39;;;;;;;6.53;4.07;;;;;;;3.95;100.00;94933.37;3664046;79;43117;-19
2020/12/28 11:31:45;;;;;;;6.63;3.87;;;;;;;3.92;98.92;94931.64;3655103;79;43666;-19
2020/12/28 11:36:51;;;;;;;5.83;3.90;;;;;;;3.91;97.61;94933.50;3705377;80;44051;-19
2020/12/28 11:41:56;;;;;;;5.83;4.00;;;;;;;4.01;97.57;94916.58;3660707;80;43292;-19
2020/12/28 11:47:04;;;;;;;7.40;3.80;;;;;;;4.18;97.62;94914.00;3652415;79;43329;-19
2020/12/28 11:52:12;;;;;;;4.40;3.40;;;;;;;4.20;92.76;94908.75;3685692;78;43437;-19
2020/12/28 11:57:20;;;;;;;5.23;3.77;;;;;;;4.18;94.91;94900.67;3659898;79;43684;-19
2020/12/28 12:02:27;;;;;;;6.00;3.63;;;;;;;4.23;92.45;94896.36;3698625;79;44081;-18
2020/12/28 12:07:33;;;;;;;7.00;3.80;;;;;;;4.11;91.07;94892.70;3654951;79;43956;-19
2020/12/28 12:12:39;;;;;;;7.20;4.13;;;;;;;4.10;91.20;94893.72;3717095;78;44040;-19
2020/12/28 12:17:45;;;;;;;5.93;3.77;;;;;;;4.03;91.17;94899.05;3666897;79;43579;-18
2020/12/28 12:22:51;;;;;;;6.33;3.87;;;;;;;4.00;89.73;94896.30;3686826;79;43357;-18
2020/12/28 12:27:56;;;;;;;6.47;4.10;;;;;;;4.01;90.85;94889.95;3662573;79;44098;-18
2020/12/28 12:33:02;;;;;;;7.50;4.37;;;;;;;3.95;89.03;94893.43;3665033;79;44012;-19
2020/12/28 12:38:09;;;;;;;6.50;4.50;;;;;;;3.98;92.26;94881.04;3670715;79;44040;-19
2020/12/28 12:43:15;;;;;;;7.00;4.30;;;;;;;4.00;90.90;94880.33;3682954;78;44153;-18
2020/12/28 12:48:21;;;;;;;8.27;4.60;;;;;;;4.01;91.90;94879.30;3738499;79;43813;-18
2020/12/28 12:53:27;;;;;;;6.60;4.13;;;;;;;3.95;90.85;94881.97;3707654;79;42674;-19
2020/12/28 12:58:33;;;;;;;8.80;4.23;;;;;;;3.89;90.84;94878.79;3705253;79;44045;-18
2020/12/28 13:03:39;;;;;;;6.07;3.97;;;;;;;3.87;92.58;94884.86;3737956;78;44126;-18
2020/12/28 13:08:44;;;;;;;5.77;3.90;;;;;;;3.81;93.10;94882.52;3730493;79;43277;-19
2020/12/28 13:13:51;;;;;;;7.13;4.20;;;;;;;3.76;94.67;94882.30;3734673;79;43707;-18
2020/12/28 13:18:58;;;;;;;5.87;4.30;;;;;;;3.74;96.56;94883.02;3729057;79;43689;-18
2020/12/28 13:24:04;;;;;;;7.33;4.37;;;;;;;3.69;96.56;94892.45;3707442;79;44069;-19
2020/12/28 13:29:10;;;;;;;7.13;4.27;;;;;;;3.66;97.37;94894.68;3732408;79;44062;-18
2020/12/28 13:34:18;;;;;;;6.57;4.30;;;;;;;3.60;97.60;94904.30;3731555;79;43381;-18
2020/12/28 13:39:23;;;;;;;6.63;3.97;;;;;;;3.48;96.21;94889.97;3722695;79;43681;-18
2020/12/28 13:44:29;;;;;;;7.10;4.53;;;;;;;3.47;97.52;94891.83;3692998;79;43686;-18
2020/12/28 13:49:35;;;;;;;6.80;3.93;;;;;;;3.39;99.01;94887.52;3731524;78;43996;-18
2020/12/28 13:54:41;;;;;;;6.53;3.93;;;;;;;3.42;98.57;94893.45;3722383;78;43283;-18
2020/12/28 13:59:47;;;;;;;6.30;4.03;;;;;;;3.36;100.00;94892.43;3721991;78;43697;-18
2020/12/28 14:04:52;;;;;;;8.77;4.93;;;;;;;3.35;100.00;94890.27;3709376;79;44098;-18
2020/12/28 14:09:58;;;;;;;7.03;4.20;;;;;;;3.38;100.00;94893.05;3619947;81;43390;-18
2020/12/28 14:15:04;;;;;;;6.90;3.93;;;;;;;3.31;100.00;94894.87;3701974;78;43381;-18
2020/12/28 14:20:10;;;;;;;9.60;4.70;;;;;;;3.31;100.00;94887.73;3596536;80;44034;-18
2020/12/28 14:25:16;;;;;;;7.43;3.97;;;;;;;3.32;100.00;94888.53;3732032;77;43603;-18
2020/12/28 14:30:22;;;;;;;6.20;4.03;;;;;;;3.28;100.00;94882.80;3660771;79;43725;-18
2020/12/28 14:35:29;;;;;;;9.10;4.53;;;;;;;3.27;100.00;94883.83;3712287;79;43493;-18
2020/12/28 14:40:34;;;;;;;6.37;3.80;;;;;;;3.28;100.00;94900.62;3642524;80;44038;-18
2020/12/28 14:45:40;;;;;;;7.10;4.33;;;;;;;3.23;100.00;94892.72;3740961;77;43113;-18
2020/12/28 14:50:46;;;;;;;7.83;4.43;;;;;;;3.18;100.00;94902.33;3672515;79;43735;-18
2020/12/28 14:55:52;;;;;;;8.77;4.37;;;;;;;3.16;100.00;94893.23;3675025;79;43284;-18
2020/12/28 15:00:58;;;;;;;7.70;4.63;;;;;;;3.15;100.00;94903.56;3677951;78;44052;-18
2020/12/28 15:06:04;;;;;;;7.90;5.00;;;;;;;3.15;100.00;94916.02;3653826;79;44017;-18
2020/12/28 15:11:09;;;;;;;9.40;4.83;;;;;;;3.14;100.00;94910.39;3699587;79;44090;-17
2020/12/28 15:16:15;;;;;;;9.23;4.60;;;;;;;3.12;100.00;94911.13;3695123;78;43138;-17
2020/12/28 15:21:21;;;;;;;6.53;4.33;;;;;;;3.16;100.00;94901.70;3712265;78;44058;-17
2020/12/28 15:26:26;;;;;;;8.77;5.27;;;;;;;3.11;100.00;94906.83;3658204;79;43291;-18
2020/12/28 15:31:32;;;;;;;10.47;5.77;;;;;;;3.08;100.00;94911.52;3674434;79;44073;-18
2020/12/28 15:36:39;;;;;;;9.10;5.33;;;;;;;3.08;100.00;94907.53;3680031;79;44449;-18
2020/12/28 15:41:44;;;;;;;7.93;4.77;;;;;;;3.08;100.00;94908.86;3672710;79;42994;-18
2020/12/28 15:46:50;;;;;;;7.77;5.10;;;;;;;3.08;100.00;94904.05;3678463;78;43343;-18
2020/12/28 15:51:56;;;;;;;8.83;5.60;;;;;;;3.05;100.00;94893.30;3659351;79;44097;-17
2020/12/28 15:57:02;;;;;;;9.20;4.97;;;;;;;3.05;100.00;94884.00;3698973;78;43092;-18
2020/12/28 16:02:08;;;;;;;9.73;5.90;;;;;;;3.03;100.00;94882.05;3699288;79;43339;-18
2020/12/28 16:07:14;;;;;;;10.27;5.77;;;;;;;2.98;100.00;94877.86;3646769;80;44018;-18
2020/12/28 16:12:20;;;;;;;11.30;6.23;;;;;;;2.95;100.00;94874.27;3667296;78;43456;-18
2020/12/28 16:17:27;;;;;;;9.80;6.30;;;;;;;2.91;100.00;94880.50;3667142;79;44541;-18
2020/12/28 16:22:35;;;;;;;9.30;6.00;;;;;;;2.88;100.00;94884.88;3682100;80;42818;-21
2020/12/28 16:27:40;;;;;;;9.87;5.83;;;;;;;2.88;100.00;94890.20;3655638;79;44075;-18
2020/12/28 16:32:47;;;;;;;9.97;5.90;;;;;;;2.89;100.00;94891.00;3670339;79;44081;-18
2020/12/28 16:37:53;;;;;;;10.83;5.73;;;;;;;2.89;100.00;94901.14;3670613;79;44553;-18
2020/12/28 16:42:59;;;;;;;10.13;6.00;;;;;;;2.78;100.00;94901.20;3680604;80;44407;-18
2020/12/28 16:48:05;;;;;;;11.80;6.37;;;;;;;2.77;100.00;94891.59;3681198;78;43996;-18
2020/12/28 16:53:11;;;;;;;11.13;6.00;;;;;;;2.77;100.00;94909.39;3745855;77;43077;-19
2020/12/28 16:58:17;;;;;;;11.40;6.80;;;;;;;2.73;100.00;94907.64;3722565;78;44073;-18
2020/12/28 17:03:23;;;;;;;9.97;6.13;;;;;;;2.70;100.00;94905.38;3720682;78;44083;-18
2020/12/28 17:08:29;;;;;;;11.90;6.27;;;;;;;2.61;100.00;94906.57;3754504;77;45147;-17
2020/12/28 17:13:36;;;;;;;12.37;6.53;;;;;;;2.57;100.00;94904.83;3736801;77;43768;-18
2020/12/28 17:18:43;;;;;;;11.33;6.60;;;;;;;2.55;100.00;94913.50;3721608;78;43247;-18
2020/12/28 17:23:49;;;;;;;13.50;7.50;;;;;;;2.46;100.00;94918.16;3634991;81;43698;-17
2020/12/28 17:28:56;;;;;;;13.50;7.53;;;;;;;2.38;100.00;94916.16;3663732;80;43673;-17
2020/12/28 17:34:03;;;;;;;12.03;7.53;;;;;;;2.32;100.00;94911.13;3636661;81;43719;-18
2020/12/28 17:39:08;;;;;;;15.03;8.20;;;;;;;2.31;100.00;94913.47;3678576;79;44054;-18
2020/12/28 17:44:14;;;;;;;13.27;7.97;;;;;;;2.23;100.00;94906.51;3739712;77;43685;-17
2020/12/28 17:49:20;;;;;;;15.40;8.73;;;;;;;2.09;100.00;94929.48;3629918;81;44077;-18
2020/12/28 17:54:27;;;;;;;15.13;8.67;;;;;;;2.09;100.00;94932.66;3668432;80;43702;-17
2020/12/28 17:59:34;;;;;;;23.00;14.40;;;;;;;1.99;100.00;94940.95;3588110;82;43686;-18
2020/12/28 18:04:41;;;;;;;16.20;8.67;;;;;;;2.04;100.00;94934.58;3725701;79;43440;-18
2020/12/28 18:09:47;;;;;;;14.40;8.17;;;;;;;1.94;100.00;94922.96;3714591;79;43428;-19
2020/12/28 18:14:55;;;;;;;13.63;8.93;;;;;;;1.92;100.00;94926.31;3737481;79;43226;-19
2020/12/28 18:20:03;;;;;;;15.13;9.03;;;;;;;1.86;100.00;94929.75;3743417;78;43559;-18
2020/12/28 18:25:09;;;;;;;16.37;9.50;;;;;;;1.77;100.00;94930.39;3684536;79;43709;-19
2020/12/28 18:30:16;;;;;;;15.53;9.13;;;;;;;1.55;100.00;94928.27;3743128;79;44104;-19
2020/12/28 18:35:22;;;;;;;15.87;9.50;;;;;;;1.54;100.00;94922.16;3715283;78;43667;-18
2020/12/28 18:40:28;;;;;;;15.73;9.57;;;;;;;1.46;100.00;94916.16;3721037;79;44076;-16
2020/12/28 18:45:34;;;;;;;16.67;9.70;;;;;;;1.47;100.00;94919.94;3729928;79;43661;-17
2020/12/28 18:50:40;;;;;;;15.93;9.77;;;;;;;1.36;100.00;94919.97;3755412;78;43681;-16
2020/12/28 18:55:47;;;;;;;15.60;9.23;;;;;;;1.36;100.00;94913.34;3735224;78;43324;-16
2020/12/28 19:00:52;;;;;;;14.60;9.03;;;;;;;1.30;100.00;94918.58;3727602;78;44027;-17
2020/12/28 19:05:58;;;;;;;18.27;9.70;;;;;;;1.33;100.00;94908.92;3750576;77;43460;-17
2020/12/28 19:11:12;;;;;;;15.63;9.13;;;;;;;1.32;100.00;94913.91;3724770;79;44433;-17
2020/12/28 19:16:22;;;;;;;16.30;9.70;;;;;;;1.25;100.00;94916.98;3711845;78;43345;-17
2020/12/28 19:21:29;;;;;;;17.60;10.07;;;;;;;1.22;100.00;94911.08;3712407;79;43388;-17
2020/12/28 19:26:37;;;;;;;17.23;10.10;;;;;;;1.22;100.00;94904.45;3700812;79;43485;-18
2020/12/28 19:31:45;;;;;;;17.37;10.20;;;;;;;1.25;100.00;94909.87;3702788;78;43282;-17
2020/12/28 19:36:53;;;;;;;17.87;9.97;;;;;;;1.19;100.00;94907.47;3719899;78;43971;-17
2020/12/28 19:41:59;;;;;;;17.90;10.00;;;;;;;1.15;100.00;94904.88;3714537;78;44521;-17
2020/12/28 19:47:05;;;;;;;17.23;10.10;;;;;;;1.15;100.00;94902.22;3733648;78;44006;-17
2020/12/28 19:52:11;;;;;;;18.70;10.47;;;;;;;1.18;100.00;94895.22;3705167;79;43105;-18
2020/12/28 19:57:17;;;;;;;18.30;9.93;;;;;;;1.16;100.00;94888.48;3660227;79;43727;-17
2020/12/28 20:02:24;;;;;;;15.93;9.40;;;;;;;1.17;100.00;94897.56;3680673;79;43460;-18
2020/12/28 20:07:30;;;;;;;16.97;10.27;;;;;;;1.17;100.00;94884.30;3682735;78;44085;-17
2020/12/28 20:12:40;;;;;;;17.33;10.50;;;;;;;1.19;100.00;94883.61;3663253;79;44047;-18
2020/12/28 20:17:45;;;;;;;17.87;10.17;;;;;;;1.19;100.00;94881.45;3652742;80;43361;-17
2020/12/28 20:23:01;;;;;;;19.20;10.90;;;;;;;1.15;100.00;94878.36;3675758;79;44072;-17
2020/12/28 20:28:16;;;;;;;16.43;10.17;;;;;;;1.08;100.00;94867.70;3699912;78;43694;-16
2020/12/28 20:33:22;;;;;;;17.70;10.77;;;;;;;1.03;100.00;94868.80;3691248;78;44038;-16
2020/12/28 20:38:29;;;;;;;17.80;9.97;;;;;;;1.05;100.00;94863.29;3690717;79;43452;-17
2020/12/28 20:43:35;;;;;;;19.17;11.47;;;;;;;0.99;100.00;94870.69;3652751;79;43726;-17
2020/12/28 20:48:41;;;;;;;18.53;11.13;;;;;;;1.05;100.00;94863.29;3651304;80;43431;-16
2020/12/28 20:53:48;;;;;;;19.67;10.70;;;;;;;1.02;100.00;94883.05;3659753;79;44156;-17
2020/12/28 20:58:53;;;;;;;18.70;10.97;;;;;;;1.03;100.00;94876.74;3649236;79;43714;-17
2020/12/28 21:04:00;;;;;;;20.57;11.27;;;;;;;1.01;100.00;94877.92;3656109;80;43404;-16
2020/12/28 21:09:07;;;;;;;19.53;10.43;;;;;;;0.98;100.00;94882.30;3659668;79;44073;-17
2020/12/28 21:14:13;;;;;;;20.17;11.60;;;;;;;0.94;100.00;94885.84;3669650;80;44004;-17
2020/12/28 21:19:19;;;;;;;20.23;11.40;;;;;;;0.95;100.00;94893.27;3659615;81;43640;-17
2020/12/28 21:24:26;;;;;;;19.57;11.33;;;;;;;0.96;100.00;94894.91;3665349;79;44090;-18
2020/12/28 21:29:32;;;;;;;18.73;10.80;;;;;;;0.97;100.00;94894.70;3655064;79;43721;-17
2020/12/28 21:34:38;;;;;;;19.83;11.30;;;;;;;0.96;100.00;94893.58;3608468;81;44061;-17
2020/12/28 21:39:44;;;;;;;19.13;11.47;;;;;;;0.95;100.00;94895.40;3624999;80;43702;-18
2020/12/28 21:44:50;;;;;;;19.07;10.93;;;;;;;0.90;100.00;94903.91;3669481;81;43354;-18
2020/12/28 21:49:56;;;;;;;19.30;11.33;;;;;;;0.92;100.00;94909.05;3673847;78;44024;-18
2020/12/28 21:55:02;;;;;;;18.47;10.87;;;;;;;0.90;100.00;94903.11;3666479;81;42891;-18
2020/12/28 22:00:08;;;;;;;18.63;10.00;;;;;;;0.87;100.00;94904.31;3686541;78;43431;-18
2020/12/28 22:05:15;;;;;;;19.57;12.03;;;;;;;0.88;100.00;94909.90;3702177;79;43457;-18
2020/12/28 22:10:21;;;;;;;20.57;11.77;;;;;;;0.90;100.00;94917.16;3702836;80;44062;-18
2020/12/28 22:15:27;;;;;;;18.13;11.23;;;;;;;0.86;100.00;94915.91;3703071;80;43379;-18
2020/12/28 22:20:33;;;;;;;19.43;10.43;;;;;;;0.86;100.00;94919.89;3702745;79;43981;-18
2020/12/28 22:25:39;;;;;;;19.60;11.00;;;;;;;0.86;100.00;94923.03;3703553;79;43690;-18
2020/12/28 22:30:45;;;;;;;18.03;10.37;;;;;;;0.87;100.00;94922.86;3703370;78;42991;-18
2020/12/28 22:35:51;;;;;;;17.67;10.70;;;;;;;0.82;100.00;94921.27;3702465;80;43674;-18
2020/12/28 22:40:57;;;;;;;19.73;10.93;;;;;;;0.94;100.00;94922.09;3701497;80;44008;-18
2020/12/28 22:46:04;;;;;;;20.17;11.67;;;;;;;0.82;100.00;94911.98;3703691;79;43712;-18
2020/12/28 22:51:12;;;;;;;18.70;10.90;;;;;;;0.81;100.00;94906.38;3710126;79;44051;-18
2020/12/28 22:56:18;;;;;;;20.70;10.23;;;;;;;0.75;100.00;94903.16;3719841;80;43087;-18
2020/12/28 23:01:27;;;;;;;19.97;11.00;;;;;;;0.62;100.00;94913.08;3734849;78;43704;-18
2020/12/28 23:06:34;;;;;;;19.03;11.27;;;;;;;0.59;100.00;94914.28;3760200;77;43676;-17
2020/12/28 23:11:41;;;;;;;18.80;10.93;;;;;;;0.64;100.00;94911.59;3728114;77;44042;-18
2020/12/28 23:16:47;;;;;;;16.37;9.97;;;;;;;0.53;100.00;94922.15;3720023;80;43718;-18
2020/12/28 23:21:53;;;;;;;16.27;10.13;;;;;;;0.50;100.00;94940.56;3719410;78;43431;-18
2020/12/28 23:27:03;;;;;;;18.27;11.07;;;;;;;0.46;100.00;94939.27;3719068;80;43729;-18
2020/12/28 23:32:12;;;;;;;18.40;10.70;;;;;;;0.44;100.00;94943.44;3723130;78;43718;-18
2020/12/28 23:37:18;;;;;;;20.67;11.37;;;;;;;0.44;100.00;94950.55;3760038;79;43697;-18
2020/12/28 23:42:23;;;;;;;16.97;10.27;;;;;;;0.43;100.00;94947.58;3731563;78;43417;-18
2020/12/28 23:47:29;;;;;;;19.10;11.13;;;;;;;0.42;100.00;94960.50;3720129;80;44610;-18
2020/12/28 23:52:35;;;;;;;20.27;10.83;;;;;;;0.34;100.00;94956.63;3709188;80;43113;-18
2020/12/28 23:57:44;;;;;;;20.90;11.37;;;;;;;0.27;100.00;94965.31;3700921;80;44024;-18
